Time;durP1;ratioP1;P1;durP2;ratioP2;P2;SDS_P1;SDS_P2;PMS_P1;PMS_P2;Temp;Humidity;BMP_temperature;BMP_pressure;BME280_temperature;BME280_humidity;BME280_pressure;Samples;Min_cycle;Max_cycle;Signal;HPM_P1;HPM_P2
2023/09/17 00:02:06;;;;;;;0.50;0.20;;;;;;;20.04;100.00;99967.50;4956536;28;20906;-53
2023/09/17 00:04:33;;;;;;;0.50;0.20;;;;;;;20.08;100.00;99969.00;4947905;29;20446;-53
2023/09/17 00:07:00;;;;;;;0.50;0.20;;;;;;;19.91;100.00;99960.41;4953845;29;20543;-53
2023/09/17 00:09:26;;;;;;;0.50;0.20;;;;;;;19.91;100.00;99953.19;4956852;29;20449;-53
2023/09/17 00:11:53;;;;;;;0.50;0.20;;;;;;;19.80;100.00;99962.03;4949855;28;20514;-53
2023/09/17 00:14:20;;;;;;;0.50;0.20;;;;;;;19.67;100.00;99958.50;4947160;29;20970;-53
2023/09/17 00:16:46;;;;;;;0.50;0.20;;;;;;;19.77;100.00;99962.28;4956606;28;20455;-53
2023/09/17 00:19:13;;;;;;;0.40;0.20;;;;;;;19.63;100.00;99954.31;4947100;29;20565;-53
2023/09/17 00:21:40;;;;;;;0.50;0.20;;;;;;;19.61;100.00;99953.56;4953697;29;20498;-53
2023/09/17 00:24:07;;;;;;;0.50;0.20;;;;;;;19.24;100.00;99950.72;4956585;28;20442;-53
2023/09/17 00:26:34;;;;;;;0.50;0.20;;;;;;;19.44;100.00;99957.41;4956173;29;21085;-53
2023/09/17 00:29:00;;;;;;;0.50;0.20;;;;;;;19.41;100.00;99971.09;4956434;29;20426;-53
2023/09/17 00:31:27;;;;;;;0.50;0.20;;;;;;;19.41;100.00;99962.16;4952288;29;20465;-53
2023/09/17 00:33:54;;;;;;;0.43;0.20;;;;;;;19.50;100.00;99956.97;4956662;28;20482;-53
2023/09/17 00:36:21;;;;;;;0.90;0.90;;;;;;;19.71;100.00;99960.00;4952516;28;20527;-53
2023/09/17 00:38:47;;;;;;;0.50;0.20;;;;;;;19.33;100.00;99959.16;4947469;29;21107;-53
2023/09/17 00:41:13;;;;;;;0.50;0.23;;;;;;;19.38;100.00;99954.28;4956217;29;20434;-53
2023/09/17 00:43:40;;;;;;;0.50;0.20;;;;;;;19.55;100.00;99963.91;4945501;29;20514;-53
2023/09/17 00:46:07;;;;;;;0.50;0.20;;;;;;;19.52;100.00;99964.97;4949473;29;20437;-53
2023/09/17 00:48:34;;;;;;;0.50;0.20;;;;;;;19.64;100.00;99958.72;4948028;29;20426;-53
2023/09/17 00:51:00;;;;;;;0.50;0.40;;;;;;;19.68;100.00;99959.38;4956138;29;20460;-53
2023/09/17 00:53:27;;;;;;;0.50;0.30;;;;;;;19.69;100.00;99961.94;4951603;28;20433;-53
2023/09/17 00:55:54;;;;;;;0.50;0.20;;;;;;;19.71;100.00;99957.31;4962244;28;20530;-53
2023/09/17 00:58:21;;;;;;;0.40;0.20;;;;;;;19.31;100.00;99975.41;4955820;29;20663;-53
2023/09/17 01:00:47;;;;;;;0.50;0.30;;;;;;;19.38;100.00;99975.84;4955591;29;20463;-53
2023/09/17 01:03:14;;;;;;;0.50;0.20;;;;;;;19.43;100.00;99962.91;4962818;28;20907;-53
2023/09/17 01:05:42;;;;;;;0.47;0.20;;;;;;;19.58;100.00;99960.97;4955906;28;20471;-53
2023/09/17 01:08:09;;;;;;;0.40;0.20;;;;;;;19.54;100.00;99957.63;4943166;29;20456;-53
2023/09/17 01:10:41;;;;;;;0.43;0.20;;;;;;;19.41;100.00;99959.47;4955581;29;20470;-53
2023/09/17 01:13:10;;;;;;;0.50;0.20;;;;;;;19.30;100.00;99957.50;4955260;29;20542;-53
2023/09/17 01:15:38;;;;;;;0.43;0.20;;;;;;;19.39;100.00;99959.56;4939951;29;20562;-53
2023/09/17 01:18:07;;;;;;;0.50;0.20;;;;;;;19.66;100.00;99962.19;4950662;29;20868;-53
2023/09/17 01:20:44;;;;;;;0.50;0.20;;;;;;;19.68;100.00;99962.06;4954484;29;20519;-53
2023/09/17 01:23:23;;;;;;;0.50;0.20;;;;;;;19.74;100.00;99946.31;4953382;28;20449;-53
2023/09/17 01:25:57;;;;;;;0.40;0.20;;;;;;;19.78;100.00;99950.50;4943908;28;20472;-53
2023/09/17 01:28:24;;;;;;;0.50;0.20;;;;;;;19.88;100.00;99966.03;4955095;29;20884;-53
2023/09/17 01:30:50;;;;;;;0.47;0.30;;;;;;;19.92;100.00;99951.34;4955180;29;20859;-53
2023/09/17 01:33:16;;;;;;;0.50;0.20;;;;;;;19.85;100.00;99953.63;4942287;29;20451;-53
2023/09/17 01:35:54;;;;;;;0.50;0.30;;;;;;;19.94;100.00;99963.75;4954722;29;20453;-53
2023/09/17 01:38:24;;;;;;;0.50;0.30;;;;;;;19.83;100.00;99974.44;4944110;29;20794;-53
2023/09/17 01:40:51;;;;;;;0.47;0.20;;;;;;;19.76;100.00;99973.19;4955181;28;20436;-53
2023/09/17 01:43:20;;;;;;;0.50;0.40;;;;;;;19.81;100.00;99971.00;4955243;29;20425;-53
2023/09/17 01:45:48;;;;;;;0.40;0.20;;;;;;;19.65;100.00;99963.16;4941913;28;20475;-53
2023/09/17 01:48:15;;;;;;;0.50;0.30;;;;;;;19.62;100.00;99955.28;4954883;29;20491;-53
2023/09/17 01:50:43;;;;;;;0.50;0.20;;;;;;;19.73;100.00;99965.28;4942051;29;20501;-53
2023/09/17 01:53:11;;;;;;;0.50;0.20;;;;;;;19.68;100.00;99970.16;4955014;28;20490;-53
2023/09/17 01:55:39;;;;;;;0.40;0.20;;;;;;;19.78;100.00;99966.69;4961334;28;20544;-53
2023/09/17 01:58:06;;;;;;;0.50;0.20;;;;;;;19.74;100.00;99975.13;4955011;29;20455;-53
2023/09/17 02:00:32;;;;;;;0.47;0.20;;;;;;;19.59;100.00;99974.34;4951594;29;20492;-53
2023/09/17 02:02:59;;;;;;;0.50;0.20;;;;;;;19.57;100.00;99970.06;4959108;28;20507;-53
2023/09/17 02:05:25;;;;;;;0.50;0.20;;;;;;;19.34;100.00;99963.56;4954716;29;20450;-53
2023/09/17 02:07:52;;;;;;;0.40;0.20;;;;;;;19.47;100.00;99961.75;4954775;29;20455;-53
2023/09/17 02:10:20;;;;;;;0.50;0.20;;;;;;;19.58;100.00;99964.53;4941681;29;20478;-53
2023/09/17 02:12:47;;;;;;;0.50;0.20;;;;;;;19.61;100.00;99971.59;4954612;28;20426;-53
2023/09/17 02:15:14;;;;;;;0.40;0.20;;;;;;;19.60;100.00;99964.44;4950110;28;20535;-53
2023/09/17 02:17:42;;;;;;;0.50;0.30;;;;;;;19.45;100.00;99961.81;4945806;29;20525;-53
2023/09/17 02:20:11;;;;;;;0.50;0.20;;;;;;;19.36;100.00;99956.22;4940590;29;20520;-53
2023/09/17 02:22:39;;;;;;;0.50;0.30;;;;;;;19.32;100.00;99949.31;4954462;28;20430;-53
2023/09/17 02:25:07;;;;;;;0.50;0.20;;;;;;;19.53;100.00;99956.75;4949120;28;20484;-53
2023/09/17 02:27:34;;;;;;;0.40;0.20;;;;;;;19.77;100.00;99964.09;4947377;29;20974;-53
2023/09/17 02:30:01;;;;;;;0.40;0.20;;;;;;;19.63;100.00;99957.00;4948015;28;20460;-53
2023/09/17 02:32:27;;;;;;;1.13;1.13;;;;;;;19.79;100.00;99962.16;4947600;29;20485;-53
2023/09/17 02:34:53;;;;;;;0.40;0.20;;;;;;;19.81;100.00;99974.56;4952996;28;20811;-53
2023/09/17 02:37:20;;;;;;;0.50;0.30;;;;;;;19.83;100.00;99972.59;4941495;28;21016;-53
2023/09/17 02:39:47;;;;;;;0.40;0.20;;;;;;;19.81;100.00;99963.78;4947553;28;20470;-53
2023/09/17 02:42:13;;;;;;;0.40;0.20;;;;;;;19.89;100.00;99960.53;4948212;29;20945;-53
2023/09/17 02:44:40;;;;;;;0.50;0.20;;;;;;;19.82;100.00;99949.31;4954258;28;20499;-53
2023/09/17 02:47:07;;;;;;;0.40;0.20;;;;;;;19.71;100.00;99951.91;4941496;29;20877;-53
2023/09/17 02:49:33;;;;;;;0.40;0.20;;;;;;;19.76;100.00;99955.16;4947339;28;20463;-53
2023/09/17 02:52:00;;;;;;;0.40;0.20;;;;;;;19.82;100.00;99949.31;4948035;29;20953;-53
2023/09/17 02:54:27;;;;;;;0.50;0.20;;;;;;;19.87;100.00;99956.19;4983865;23;20811;-49
2023/09/17 02:56:54;;;;;;;0.47;0.20;;;;;;;19.69;100.00;99948.47;5025537;28;20489;-49
2023/09/17 02:59:20;;;;;;;0.50;0.30;;;;;;;19.87;100.00;99950.78;5038425;28;20473;-49
2023/09/17 03:01:47;;;;;;;0.43;0.20;;;;;;;19.92;100.00;99945.94;5032121;28;20809;-49
2023/09/17 03:04:13;;;;;;;0.40;0.20;;;;;;;19.92;100.00;99941.41;5051953;28;20486;-49
2023/09/17 03:06:40;;;;;;;0.40;0.30;;;;;;;19.99;100.00;99942.69;5038315;28;20505;-49
2023/09/17 03:09:10;;;;;;;0.40;0.20;;;;;;;19.84;100.00;99943.78;5047063;28;20790;-49
2023/09/17 03:11:37;;;;;;;0.40;0.20;;;;;;;19.81;100.00;99931.41;5041581;28;20451;-49
2023/09/17 03:14:03;;;;;;;0.50;0.20;;;;;;;19.95;100.00;99948.41;5028859;28;20541;-49
2023/09/17 03:16:30;;;;;;;0.40;0.20;;;;;;;19.94;100.00;99944.00;5038288;28;20430;-49
2023/09/17 03:18:56;;;;;;;0.40;0.20;;;;;;;19.86;100.00;99946.38;5049446;28;20941;-49
2023/09/17 03:21:23;;;;;;;1.20;0.73;;;;;;;19.85;100.00;99950.91;5038318;28;20440;-49
2023/09/17 03:23:49;;;;;;;0.40;0.20;;;;;;;19.62;100.00;99947.19;5039929;28;20428;-49
2023/09/17 03:26:16;;;;;;;0.97;0.87;;;;;;;19.66;100.00;99947.84;5044936;28;20481;-49
2023/09/17 03:28:43;;;;;;;0.60;0.57;;;;;;;19.78;100.00;99952.34;5032010;28;20525;-49
2023/09/17 03:31:10;;;;;;;0.50;0.20;;;;;;;19.80;100.00;99955.78;5023444;28;20427;-49
2023/09/17 03:33:36;;;;;;;0.40;0.20;;;;;;;19.87;100.00;99948.09;5034843;28;20427;-49
2023/09/17 03:36:03;;;;;;;0.40;0.20;;;;;;;19.89;100.00;99948.88;5040232;28;20475;-49
2023/09/17 03:38:30;;;;;;;0.40;0.20;;;;;;;19.87;100.00;99958.91;5040450;28;20425;-49
2023/09/17 03:40:59;;;;;;;0.40;0.20;;;;;;;19.89;100.00;99955.13;5022689;28;20586;-49
2023/09/17 03:43:27;;;;;;;0.40;0.20;;;;;;;19.87;100.00;99958.91;5040925;28;20568;-49
2023/09/17 03:45:53;;;;;;;0.40;0.20;;;;;;;19.81;100.00;99968.31;5038335;28;20485;-49
2023/09/17 03:48:21;;;;;;;0.40;0.20;;;;;;;20.02;100.00;99961.38;5044961;28;20455;-49
2023/09/17 03:50:48;;;;;;;0.40;0.20;;;;;;;20.17;100.00;99959.38;5048618;28;20442;-51
2023/09/17 03:53:15;;;;;;;0.77;0.77;;;;;;;19.91;100.00;99963.13;5034000;28;20427;-50
2023/09/17 03:55:41;;;;;;;0.40;0.20;;;;;;;19.77;100.00;99967.66;5031964;28;20453;-49
2023/09/17 03:58:08;;;;;;;0.50;0.30;;;;;;;19.92;100.00;99954.03;5044889;28;20544;-49
2023/09/17 04:00:35;;;;;;;0.50;0.40;;;;;;;19.77;100.00;99956.88;5041524;28;20490;-49
2023/09/17 04:03:04;;;;;;;0.40;0.20;;;;;;;19.73;100.00;99955.34;5047837;28;20470;-49
2023/09/17 04:05:31;;;;;;;0.50;0.27;;;;;;;19.77;100.00;99964.09;5041378;28;20473;-49
2023/09/17 04:07:57;;;;;;;0.50;0.30;;;;;;;19.83;100.00;99950.16;5044362;28;20422;-49
2023/09/17 04:10:24;;;;;;;0.77;0.77;;;;;;;19.77;100.00;99956.03;5048315;28;20423;-49
2023/09/17 04:12:50;;;;;;;0.40;0.20;;;;;;;19.81;100.00;99960.22;5045324;28;20468;-50
2023/09/17 04:15:19;;;;;;;0.40;0.20;;;;;;;19.74;100.00;99959.81;5040997;28;20479;-48
2023/09/17 04:17:47;;;;;;;0.40;0.20;;;;;;;19.69;100.00;99953.84;5043376;28;20426;-49
2023/09/17 04:20:14;;;;;;;0.40;0.20;;;;;;;19.80;100.00;99945.00;5047873;28;20474;-49
2023/09/17 04:22:42;;;;;;;0.40;0.20;;;;;;;19.62;100.00;99957.13;5044795;28;20433;-49
2023/09/17 04:25:09;;;;;;;1.23;1.23;;;;;;;19.73;100.00;99954.50;5027865;28;20481;-49
2023/09/17 04:27:37;;;;;;;0.50;0.20;;;;;;;19.58;100.00;99953.75;5039390;28;20457;-49
2023/09/17 04:30:05;;;;;;;0.40;0.20;;;;;;;19.61;100.00;99950.00;5040951;28;20790;-49
2023/09/17 04:32:38;;;;;;;0.40;0.20;;;;;;;19.61;100.00;99953.56;5041484;28;20475;-49
2023/09/17 04:35:07;;;;;;;0.40;0.20;;;;;;;19.53;100.00;99945.97;5041568;28;20600;-49
2023/09/17 04:37:34;;;;;;;0.40;0.20;;;;;;;19.64;100.00;99944.38;5040892;28;20951;-49
2023/09/17 04:40:02;;;;;;;0.40;0.20;;;;;;;19.66;100.00;99943.31;5047008;28;20491;-49
2023/09/17 04:42:28;;;;;;;0.40;0.20;;;;;;;19.67;100.00;99949.56;5037799;28;20509;-51
2023/09/17 04:44:55;;;;;;;0.40;0.20;;;;;;;19.63;100.00;99954.31;5046365;28;20453;-49
2023/09/17 04:47:25;;;;;;;0.40;0.20;;;;;;;19.44;100.00;99945.75;5047364;28;20460;-49
2023/09/17 04:49:51;;;;;;;0.40;0.30;;;;;;;19.48;100.00;99950.84;5042926;28;20420;-49
2023/09/17 04:52:18;;;;;;;0.40;0.20;;;;;;;19.47;100.00;99956.34;5037764;28;20491;-49
2023/09/17 04:54:45;;;;;;;0.40;0.20;;;;;;;19.40;100.00;99955.03;5023460;28;20795;-49
2023/09/17 04:57:11;;;;;;;0.40;0.20;;;;;;;19.62;100.00;99959.81;5021839;28;20514;-49
2023/09/17 04:59:38;;;;;;;0.40;0.20;;;;;;;19.73;100.00;99965.28;5053548;28;20489;-49
2023/09/17 05:02:04;;;;;;;0.40;0.20;;;;;;;19.90;100.00;99969.50;5030399;28;20434;-49
2023/09/17 05:04:31;;;;;;;0.50;0.20;;;;;;;19.65;100.00;99957.75;5043666;28;20499;-49
2023/09/17 05:06:57;;;;;;;0.50;0.20;;;;;;;20.02;100.00;99963.22;5037385;28;20505;-49
2023/09/17 05:09:24;;;;;;;0.50;0.20;;;;;;;19.81;100.00;99963.78;5039312;28;20429;-49
2023/09/17 05:11:50;;;;;;;0.40;0.20;;;;;;;19.53;100.00;99975.63;5046964;28;20454;-48
2023/09/17 05:14:16;;;;;;;0.40;0.20;;;;;;;19.43;100.00;99965.59;5036124;28;20434;-48
2023/09/17 05:16:43;;;;;;;0.40;0.20;;;;;;;19.47;100.00;99981.47;5046865;28;20429;-49
2023/09/17 05:19:10;;;;;;;0.40;0.20;;;;;;;19.23;100.00;99981.34;5043906;28;20421;-50
2023/09/17 05:21:36;;;;;;;0.40;0.20;;;;;;;19.30;100.00;99989.84;5040198;28;20487;-49
2023/09/17 05:24:03;;;;;;;0.50;0.30;;;;;;;19.15;100.00;99981.00;5050198;28;20528;-50
2023/09/17 05:26:29;;;;;;;0.40;0.20;;;;;;;19.21;100.00;99994.06;5039874;28;20512;-48
2023/09/17 05:28:56;;;;;;;0.40;0.20;;;;;;;19.21;100.00;99985.97;5042937;28;20921;-50
2023/09/17 05:31:22;;;;;;;0.40;0.20;;;;;;;19.16;100.00;99998.03;5046763;28;20495;-49
2023/09/17 05:33:49;;;;;;;0.40;0.20;;;;;;;19.10;100.00;99995.78;5031038;28;20456;-49
2023/09/17 05:36:16;;;;;;;0.40;0.20;;;;;;;18.96;100.00;99994.00;5042526;28;20437;-49
2023/09/17 05:38:43;;;;;;;0.40;0.20;;;;;;;19.01;100.00;100002.63;5038241;28;20422;-49
2023/09/17 05:41:12;;;;;;;0.40;0.20;;;;;;;19.10;100.00;100004.72;5045348;28;20464;-50
2023/09/17 05:43:38;;;;;;;0.40;0.20;;;;;;;18.93;100.00;100000.47;5041895;28;20454;-49
2023/09/17 05:46:05;;;;;;;0.40;0.20;;;;;;;18.94;100.00;100009.44;5040260;28;20437;-49
2023/09/17 05:48:31;;;;;;;0.43;0.20;;;;;;;18.84;100.00;100011.00;5042032;28;20426;-49
2023/09/17 05:50:59;;;;;;;0.40;0.20;;;;;;;18.89;100.00;100011.53;5032171;28;20458;-49
2023/09/17 05:53:25;;;;;;;0.40;0.20;;;;;;;18.87;100.00;100008.97;5041390;28;21002;-49
2023/09/17 05:55:52;;;;;;;0.40;0.20;;;;;;;19.02;100.00;100015.13;5036501;28;20482;-49
2023/09/17 05:58:18;;;;;;;0.40;0.20;;;;;;;19.01;100.00;100021.50;5031515;28;20428;-49
2023/09/17 06:00:44;;;;;;;0.40;0.20;;;;;;;19.08;100.00;100021.97;5045841;28;20492;-49
2023/09/17 06:03:11;;;;;;;0.50;0.20;;;;;;;19.23;100.00;100021.78;5024892;28;20518;-49
2023/09/17 06:05:40;;;;;;;0.40;0.20;;;;;;;19.30;100.00;100030.28;5046204;28;20917;-51
2023/09/17 06:08:08;;;;;;;0.40;0.20;;;;;;;19.33;100.00;100027.41;5043871;28;20459;-50
2023/09/17 06:10:35;;;;;;;0.40;0.20;;;;;;;19.49;100.00;100028.06;5037529;28;20417;-50
2023/09/17 06:13:02;;;;;;;0.40;0.20;;;;;;;19.58;100.00;100028.41;5034928;28;20518;-50
2023/09/17 06:15:28;;;;;;;0.40;0.20;;;;;;;19.45;100.00;100025.66;5048840;28;20976;-50
2023/09/17 06:17:55;;;;;;;0.40;0.20;;;;;;;19.58;100.00;100028.41;5040300;28;20451;-50
2023/09/17 06:20:21;;;;;;;0.40;0.20;;;;;;;19.51;100.00;100031.50;5028779;28;20570;-49
2023/09/17 06:22:48;;;;;;;0.40;0.20;;;;;;;19.57;100.00;100032.94;5041952;28;20451;-49
2023/09/17 06:25:15;;;;;;;0.40;0.30;;;;;;;19.61;100.00;100030.91;5025518;28;20445;-51
2023/09/17 06:27:42;;;;;;;0.40;0.20;;;;;;;19.69;100.00;100033.91;5032834;28;20456;-50
2023/09/17 06:30:09;;;;;;;0.40;0.20;;;;;;;19.80;100.00;100031.31;5027378;28;20899;-50
2023/09/17 06:32:35;;;;;;;0.40;0.20;;;;;;;19.85;100.00;100031.84;5036828;28;20492;-51
2023/09/17 06:35:02;;;;;;;0.40;0.20;;;;;;;19.93;100.00;100036.72;5034947;28;20471;-52
2023/09/17 06:37:29;;;;;;;0.40;0.20;;;;;;;19.95;100.00;100041.03;5045327;28;20432;-52
2023/09/17 06:39:55;;;;;;;0.43;0.27;;;;;;;20.12;100.00;100037.09;5035765;28;20483;-52
2023/09/17 06:42:22;;;;;;;0.40;0.30;;;;;;;20.39;100.00;100032.41;5038476;28;20958;-52
2023/09/17 06:44:48;;;;;;;0.67;0.67;;;;;;;20.46;100.00;100027.47;5045190;28;20529;-53
2023/09/17 06:47:15;;;;;;;0.40;0.20;;;;;;;20.40;100.00;100031.41;5045355;28;20443;-52
2023/09/17 06:49:42;;;;;;;0.40;0.20;;;;;;;20.44;100.00;100033.94;5037074;28;20951;-53
2023/09/17 06:52:09;;;;;;;0.40;0.20;;;;;;;20.72;100.00;100030.94;5038116;28;20444;-52
2023/09/17 06:54:35;;;;;;;0.40;0.30;;;;;;;20.74;100.00;100038.91;5026831;28;20485;-52
2023/09/17 06:57:02;;;;;;;0.60;0.60;;;;;;;20.97;100.00;100038.06;5036101;28;20425;-52
2023/09/17 06:59:28;;;;;;;0.40;0.20;;;;;;;20.80;100.00;100028.50;5040119;28;20473;-52
2023/09/17 07:01:55;;;;;;;1.90;1.70;;;;;;;20.85;100.00;100028.16;5029942;28;20495;-52
2023/09/17 07:04:21;;;;;;;0.40;0.20;;;;;;;20.95;100.00;100029.19;5040066;28;20470;-51
2023/09/17 07:06:48;;;;;;;0.40;0.20;;;;;;;21.03;100.00;100034.00;5026246;28;20427;-52
2023/09/17 07:09:14;;;;;;;0.40;0.20;;;;;;;21.10;100.00;100028.00;5043819;28;20450;-51
2023/09/17 07:11:41;;;;;;;0.47;0.20;;;;;;;21.25;100.00;100035.00;5045179;28;20505;-52
2023/09/17 07:14:09;;;;;;;0.40;0.30;;;;;;;21.48;100.00;100030.50;5040206;28;20425;-52
2023/09/17 07:16:37;;;;;;;2.00;2.00;;;;;;;21.34;100.00;100032.53;5038124;28;20942;-52
2023/09/17 07:19:04;;;;;;;0.40;0.20;;;;;;;21.36;100.00;100036.00;5040984;28;20449;-52
2023/09/17 07:21:34;;;;;;;0.40;0.20;;;;;;;21.34;100.00;100035.25;5040863;28;20486;-52
2023/09/17 07:24:00;;;;;;;0.40;0.20;;;;;;;21.44;100.00;100037.13;5044979;28;20893;-51
2023/09/17 07:26:28;;;;;;;0.40;0.20;;;;;;;21.71;100.00;100039.53;5042208;28;20541;-52
2023/09/17 07:28:54;;;;;;;0.40;0.20;;;;;;;21.76;100.00;100036.44;5045551;28;20490;-52
2023/09/17 07:31:21;;;;;;;0.50;0.20;;;;;;;21.85;100.00;100033.88;5048802;28;20447;-52
2023/09/17 07:33:47;;;;;;;0.40;0.20;;;;;;;21.93;100.00;100027.88;5042262;28;20434;-51
2023/09/17 07:36:15;;;;;;;0.50;0.20;;;;;;;22.03;100.00;100036.94;5048482;28;20946;-52
2023/09/17 07:38:41;;;;;;;0.40;0.20;;;;;;;22.13;100.00;100032.56;5045761;28;20475;-51
2023/09/17 07:41:08;;;;;;;0.40;0.20;;;;;;;22.26;100.00;100031.56;5041806;28;21041;-52
2023/09/17 07:43:34;;;;;;;0.50;0.20;;;;;;;22.44;99.39;100028.22;5043870;28;20452;-51
2023/09/17 07:46:01;;;;;;;0.40;0.20;;;;;;;22.30;97.74;100033.03;5031578;28;20474;-52
2023/09/17 07:48:31;;;;;;;0.40;0.23;;;;;;;22.46;96.75;100028.06;5044351;28;20447;-51
2023/09/17 07:50:59;;;;;;;0.40;0.30;;;;;;;22.58;97.36;100021.66;5032864;28;20546;-52
2023/09/17 07:53:26;;;;;;;1.53;1.13;;;;;;;22.69;97.16;100029.75;5033741;28;21016;-52
2023/09/17 07:55:53;;;;;;;0.40;0.20;;;;;;;23.17;95.71;100029.38;5037210;28;20475;-51
2023/09/17 07:58:20;;;;;;;0.50;0.40;;;;;;;23.27;93.31;100034.84;5035096;28;20423;-51
2023/09/17 08:00:46;;;;;;;0.43;0.20;;;;;;;23.26;92.15;100034.00;5048272;28;20497;-52
2023/09/17 08:03:13;;;;;;;0.40;0.20;;;;;;;23.45;91.37;100029.72;5027403;28;20455;-52
2023/09/17 08:05:43;;;;;;;0.40;0.20;;;;;;;23.67;89.40;100031.44;5048204;28;20560;-52
2023/09/17 08:08:10;;;;;;;0.50;0.30;;;;;;;23.56;89.61;100037.78;5046800;28;20948;-52
2023/09/17 08:10:37;;;;;;;0.40;0.20;;;;;;;23.90;88.96;100043.88;5041189;28;20422;-52
2023/09/17 08:13:03;;;;;;;0.50;0.20;;;;;;;24.08;87.56;100049.53;5040732;28;20513;-53
2023/09/17 08:15:30;;;;;;;0.50;0.20;;;;;;;24.05;87.16;100056.09;5047898;28;20957;-52
2023/09/17 08:17:57;;;;;;;0.50;0.43;;;;;;;24.32;87.34;100050.09;5047512;28;20940;-52
2023/09/17 08:20:24;;;;;;;0.50;0.30;;;;;;;24.03;87.24;100046.38;5041192;28;20458;-51
2023/09/17 08:22:51;;;;;;;0.50;0.30;;;;;;;24.22;88.98;100051.88;5040883;28;20430;-52
2023/09/17 08:25:19;;;;;;;0.50;0.30;;;;;;;24.05;88.87;100058.81;5047455;28;20478;-52
2023/09/17 08:27:46;;;;;;;0.50;0.20;;;;;;;24.03;88.00;100057.25;5040871;28;20969;-51
2023/09/17 08:30:13;;;;;;;0.50;0.20;;;;;;;24.26;87.39;100047.03;5047025;28;20515;-52
2023/09/17 08:32:43;;;;;;;0.50;0.20;;;;;;;24.10;88.51;100053.81;5046688;28;20447;-53
2023/09/17 08:35:13;;;;;;;0.50;0.20;;;;;;;24.47;85.82;100054.16;5020751;28;20982;-53
2023/09/17 08:37:44;;;;;;;0.50;0.20;;;;;;;24.75;85.19;100048.94;5022794;28;20543;-52
2023/09/17 08:40:14;;;;;;;0.50;0.20;;;;;;;24.60;86.98;100053.03;5032868;28;20455;-51
2023/09/17 08:42:42;;;;;;;0.50;0.30;;;;;;;24.56;86.28;100047.03;5038784;28;20475;-52
2023/09/17 08:45:10;;;;;;;0.50;0.40;;;;;;;24.64;86.34;100054.47;5044279;28;20471;-53
2023/09/17 08:47:39;;;;;;;0.47;0.20;;;;;;;24.97;84.67;100056.84;5031631;28;20471;-52
2023/09/17 08:50:10;;;;;;;0.50;0.30;;;;;;;25.10;84.08;100059.31;5045056;28;20478;-52
2023/09/17 08:52:43;;;;;;;4.60;3.70;;;;;;;25.37;82.65;100058.59;5039902;28;20512;-53
2023/09/17 08:55:11;;;;;;;0.50;0.20;;;;;;;25.27;82.62;100057.75;5039659;28;20483;-50
2023/09/17 08:57:42;;;;;;;0.50;0.20;;;;;;;25.43;82.06;100058.00;5033897;28;20975;-50
2023/09/17 09:00:12;;;;;;;0.50;0.20;;;;;;;25.48;81.08;100054.84;5041972;28;20550;-51
2023/09/17 09:02:54;;;;;;;0.50;0.20;;;;;;;25.57;81.23;100053.97;5040250;28;20901;-50
2023/09/17 09:05:25;;;;;;;0.50;0.40;;;;;;;25.71;78.62;100047.25;5043536;28;20446;-50
2023/09/17 09:07:52;;;;;;;0.50;0.20;;;;;;;26.24;78.74;100045.66;5043981;28;20501;-50
2023/09/17 09:10:20;;;;;;;0.50;0.30;;;;;;;26.38;78.56;100040.75;5025187;28;20459;-50
2023/09/17 09:12:47;;;;;;;0.50;0.20;;;;;;;26.53;76.97;100034.63;5036605;28;20447;-50
2023/09/17 09:15:14;;;;;;;0.50;0.27;;;;;;;26.27;77.75;100033.56;5044843;28;20837;-50
2023/09/17 09:17:41;;;;;;;0.50;0.20;;;;;;;26.33;73.93;100034.84;5037593;28;20475;-49
2023/09/17 09:20:10;;;;;;;0.50;0.30;;;;;;;26.65;74.96;100026.22;5036103;28;20964;-50
2023/09/17 09:22:45;;;;;;;0.50;0.30;;;;;;;26.19;76.13;100028.91;5033369;28;20847;-49
2023/09/17 09:25:16;;;;;;;0.50;0.30;;;;;;;26.38;72.80;100032.56;5045712;28;20474;-49
2023/09/17 09:27:43;;;;;;;0.50;0.20;;;;;;;26.54;72.25;100030.88;5046722;28;20455;-49
2023/09/17 09:30:11;;;;;;;0.50;0.30;;;;;;;26.71;72.59;100031.91;5040432;28;20447;-49
2023/09/17 09:32:38;;;;;;;0.50;0.30;;;;;;;26.93;71.88;100022.44;5039705;28;20443;-50
2023/09/17 09:35:06;;;;;;;0.50;0.30;;;;;;;27.07;71.78;100027.38;5045473;28;20494;-49
2023/09/17 09:37:34;;;;;;;0.50;0.30;;;;;;;27.15;70.10;100024.75;5046692;28;20533;-50
2023/09/17 09:40:02;;;;;;;0.50;0.20;;;;;;;26.88;70.06;100023.94;5041758;28;20475;-49
2023/09/17 09:42:30;;;;;;;0.50;0.20;;;;;;;26.74;69.87;100028.06;5039610;28;20493;-49
2023/09/17 09:44:57;;;;;;;0.50;0.30;;;;;;;27.16;68.83;100031.06;5043198;28;21039;-49
2023/09/17 09:47:23;;;;;;;0.50;0.30;;;;;;;27.03;68.02;100025.13;5046357;28;20446;-49
2023/09/17 09:49:50;;;;;;;0.50;0.30;;;;;;;26.78;69.72;100033.03;5041888;28;20822;-50
2023/09/17 09:52:20;;;;;;;0.50;0.30;;;;;;;27.30;68.76;100027.78;5039731;28;20443;-50
2023/09/17 09:54:47;;;;;;;0.50;0.20;;;;;;;27.33;68.89;100027.44;5026044;28;20482;-50
2023/09/17 09:57:15;;;;;;;0.50;0.20;;;;;;;27.61;67.17;100027.31;5036875;28;20451;-50
2023/09/17 09:59:44;;;;;;;0.50;0.20;;;;;;;27.62;66.69;100029.03;5042814;28;20486;-50
2023/09/17 10:02:13;;;;;;;0.50;0.20;;;;;;;27.66;66.53;100035.91;5028216;28;20527;-49
2023/09/17 10:04:39;;;;;;;0.50;0.20;;;;;;;27.92;65.49;100025.84;5043059;28;21119;-49
2023/09/17 10:07:10;;;;;;;0.50;0.20;;;;;;;27.42;66.81;100022.94;5039389;28;20461;-50
2023/09/17 10:09:36;;;;;;;0.50;0.27;;;;;;;27.92;65.90;100020.38;5041630;28;20452;-50
2023/09/17 10:12:04;;;;;;;0.50;0.30;;;;;;;28.09;65.13;100015.00;5046030;28;20884;-50
2023/09/17 10:14:36;;;;;;;0.50;0.30;;;;;;;28.19;65.37;100021.22;5042803;28;20478;-50
2023/09/17 10:17:05;;;;;;;0.43;0.20;;;;;;;28.00;63.96;100017.72;5039214;28;20449;-50
2023/09/17 10:19:34;;;;;;;0.50;0.30;;;;;;;27.89;65.09;100011.66;5039678;28;20539;-50
2023/09/17 10:22:03;;;;;;;0.50;0.20;;;;;;;27.78;64.70;100010.06;5039213;28;20482;-50
2023/09/17 10:24:31;;;;;;;0.50;0.20;;;;;;;28.08;65.38;99999.63;5035219;28;20514;-50
2023/09/17 10:26:59;;;;;;;0.50;0.30;;;;;;;28.20;64.21;100001.91;5044913;28;20539;-50
2023/09/17 10:29:26;;;;;;;0.50;0.30;;;;;;;28.16;64.07;99997.78;5045968;28;20454;-50
2023/09/17 10:31:54;;;;;;;0.50;0.30;;;;;;;27.80;64.95;99997.09;5039872;28;20453;-50
2023/09/17 10:34:24;;;;;;;0.50;0.30;;;;;;;27.79;66.85;100000.84;5039003;28;20499;-50
2023/09/17 10:36:51;;;;;;;0.50;0.30;;;;;;;28.02;65.52;99992.94;5044067;28;20895;-50
2023/09/17 10:39:19;;;;;;;0.50;0.20;;;;;;;27.96;65.42;99982.66;5045462;28;20472;-49
2023/09/17 10:41:48;;;;;;;0.50;0.30;;;;;;;28.02;65.50;99977.41;5040744;28;20486;-50
2023/09/17 10:44:18;;;;;;;0.50;0.30;;;;;;;28.27;64.26;99983.00;5038870;28;20451;-50
2023/09/17 10:46:45;;;;;;;0.50;0.20;;;;;;;28.29;64.95;99980.97;5042738;28;20509;-50
2023/09/17 10:49:13;;;;;;;0.50;0.27;;;;;;;28.51;64.61;99980.38;5045610;28;20451;-50
2023/09/17 10:51:40;;;;;;;0.47;0.30;;;;;;;28.42;63.27;99972.28;5042109;28;21024;-50
2023/09/17 10:54:07;;;;;;;0.50;0.30;;;;;;;28.73;62.20;99975.25;5034702;28;20444;-50
2023/09/17 10:56:34;;;;;;;0.50;0.30;;;;;;;28.39;63.45;99967.16;5039489;28;20925;-50
2023/09/17 10:59:00;;;;;;;0.50;0.30;;;;;;;28.63;62.87;99964.47;5039960;28;20450;-50
2023/09/17 11:01:31;;;;;;;0.50;0.30;;;;;;;28.65;63.84;99972.53;5040730;28;20864;-51
2023/09/17 11:04:08;;;;;;;0.50;0.20;;;;;;;28.32;64.05;99969.69;5047556;28;20454;-51
2023/09/17 11:06:35;;;;;;;0.50;0.30;;;;;;;28.59;64.42;99971.31;5031226;28;20477;-50
2023/09/17 11:09:04;;;;;;;0.50;0.30;;;;;;;28.39;62.49;99957.06;5044616;28;20814;-49
2023/09/17 11:11:32;;;;;;;0.50;0.30;;;;;;;28.36;64.62;99957.38;5043073;28;20454;-50
2023/09/17 11:13:59;;;;;;;0.50;0.20;;;;;;;28.33;64.50;99958.59;5049215;28;20456;-50
2023/09/17 11:16:28;;;;;;;0.50;0.20;;;;;;;28.42;63.45;99955.88;5049093;28;20524;-49
2023/09/17 11:19:05;;;;;;;0.50;0.30;;;;;;;28.70;63.22;99953.72;5030146;28;20447;-49
2023/09/17 11:21:55;;;;;;;0.50;0.30;;;;;;;28.79;62.22;99950.84;5042217;28;20487;-52
2023/09/17 11:24:22;;;;;;;0.50;0.27;;;;;;;28.96;62.06;99953.63;5034185;28;20557;-50
2023/09/17 11:26:48;;;;;;;0.50;0.30;;;;;;;28.93;61.00;99957.56;5049152;28;20455;-51